TFM - Tactical Decision Aid
ID: Runway Winds: CIG/VIS Threshold:

KLGA - New York/La Guardia, NY, US

Updated at: 2056 UTC 17 Jun 2019
Latest TAF at: 2041 UTC 17 Jun 2019

TAF Board

Time2051Z 17/21Z 17/22Z 17/23Z 18/00Z 18/01Z 18/02Z 18/03Z 18/04Z 18/05Z 18/06Z 18/07Z 18/08Z 18/09Z>>
Type OBS PRVL
  [TEMP]  
PRVL
  [TEMP]  
PRVL
  [TEMP]  
PRVL
  [TEMP]  
PRVL
  [TEMP]  
PRVL PRVL PRVL PRVL
  [TEMP]  
PRVL
  [TEMP]  
PRVL
  [TEMP]  
PRVL
  [TEMP]  
PRVL
  [TEMP]  
VIS 10 >6 >6
  [5]  
>6
  [5]  
>6
  [5]  
>6
  [5]  
5 5 5 5
  [5]  
5
  [5]  
5
  [5]  
3
  [1.5]  
3
  [1.5]  
CIG 28 35
  [25]  
40
  [25]  
40
  [25]  
40
  [25]  
40
  [25]  
25 25 25 25
  [10]  
25
  [10]  
25
  [10]  
10
  [4]  
10
  [4]  
Cover OVC BKN
  [BKN]  
BKN
  [BKN]  
BKN
  [BKN]  
BKN
  [BKN]  
BKN
  [BKN]  
BKN BKN BKN BKN
  [BKN]  
BKN
  [BKN]  
BKN
  [BKN]  
BKN
  [BKN]  
BKN
  [BKN]  
FltCat MVFR VFR
  [MVFR]  
VFR
  [MVFR]  
VFR
  [MVFR]  
VFR
  [MVFR]  
VFR
  [MVFR]  
MVFR MVFR MVFR MVFR
  [MVFR]  
MVFR
  [MVFR]  
MVFR
  [MVFR]  
MVFR
  [LIFR]  
MVFR
  [LIFR]  
WX -- -SHRA
  [--]  
VCTS
  [-SHRA]  
VCTS
  [-SHRA]  
VCTS
  [-SHRA]  
VCTS
  [-SHRA]  
BR BR BR BR
  [-SHRA BR]  
BR
  [-SHRA BR]  
BR
  [-SHRA BR]  
BR
  [BR]  
BR
  [BR]  
WDir 50 50
[50]
120
[120]
120
[120]
120
[120]
120
[120]
160 160 160 160
[160]
160
[160]
160
[160]
VRB
[VRB]
VRB
[VRB]
WSpd 7 5
  [5]  
5
  [5]  
5
  [5]  
5
  [5]  
5
  [5]  
5 5 5 5
  [5]  
5
  [5]  
5
  [5]  
4
  [4]  
4
  [4]  
WGst -- --
  [--]  
--
  [--]  
--
  [--]  
--
  [--]  
--
  [--]  
-- -- -- --
  [--]  
--
  [--]  
--
  [--]  
--
  [--]  
--
  [--]  

TDA Impact Legend

  None Marginal Slight Moderate High
Visibility (sm) >5 3≤X≤5 1≤X<3 0.5≤X<1 <0.5
Ceiling (100 ft) >30 10≤X≤30 4≤X<10 2≤X<4 <2
Wind Speed (kt) <15 15≤X<25 25≤X<30 ≥30
Wind Gust (kt) <15 15≤X<25 25≤X<35 ≥35
Weather No Wx Reported VCTS -TS,-FZRA TS,FZRA +TS,+FZRA
TAF
KLGA 172041Z 1721/1824 05005KT P6SM -SHRA BKN035
  TEMPO 1721/1722 BKN025
  FM172200 12005KT P6SM VCTS SCT025 BKN040CB
  TEMPO 1722/1802 5SM -SHRA BKN025
  FM180200 16005KT 5SM BR SCT010 BKN025
  TEMPO 1805/1808 5SM -SHRA BR BKN010
  FM180800 VRB04KT 3SM BR BKN010
  TEMPO 1808/1812 1 1/2SM BR BKN004
  FM181400 06006KT 5SM -SHRA BR BKN010
  FM182100 07008KT P6SM BKN035


METAR
KLGA 172051Z 05007KT 10SM OVC028 23/16 A2998 RMK AO2 RAB36E47 SLP150 P0000 60000 T02330161 58004
KLGA 172025Z 04004KT 10SM OVC029 23/16 A2999 RMK AO2 T02330161
KLGA 171951Z 03004KT 10SM OVC030 23/17 A2999 RMK AO2 RAE46 SLP154 P0000 T02330167
KLGA 171851Z 04005KT 10SM -RA OVC031 23/16 A2999 RMK AO2 SLP156 P0000 T02330161
KLGA 171751Z 03003KT 10SM -RA OVC034 24/15 A2999 RMK AO2 RAB48 SLP154 P0000 60000 T02390150 10244 20217 51009

Radar Display
Forecast Discussion